Pikangikum, Canada
Current Conditions -  °F | °C
As of 1:00 PM on Thursday 23 Oct 2014 (Local Time) from CYRL Reporting Station
Overcast Overcast  
Wind Chill: 54°   Ceiling: 1500
Heat Index: 54°   Visibility: 15mi
Dew Point: 48°   Wind: 10mph
Humidity: 82%   Direction: 190°S
Pressure: 29.77"   Gusts: NA
Location:  51.82°N, 94°W
Report Text: CYRL 231800Z 19009KT 15SM SCT013 BKN015 OVC040 12/09 A2977 RMK SC3SC3SC2 CIG RAG SLP089 DENSITY ALT 1300FT
Loading
Personal Weather Stations






























Interactive Weather Map
Tropical Storm Tracking
New forecast layout! Learn more

10-Day Weather Forecast

Advertisements
Track Severe Weather on mobile